sensor_id;sensor_type;location;lat;lon;timestamp;pressure;altitude;pressure_sealevel;temperature;humidity
68891;BME280;55932;48.702;8.884;2023-01-28T00:04:36;96620;;;-0.7;77
68891;BME280;55932;48.702;8.884;2023-01-28T00:07:06;96620;;;-0.7;77
68891;BME280;55932;48.702;8.884;2023-01-28T00:09:50;96620;;;-0.7;77
68891;BME280;55932;48.702;8.884;2023-01-28T00:14:46;96620;;;-0.7;77
68891;BME280;55932;48.702;8.884;2023-01-28T00:17:17;96610;;;-0.7;77
68891;BME280;55932;48.702;8.884;2023-01-28T00:19:53;96610;;;-0.7;77
68891;BME280;55932;48.702;8.884;2023-01-28T00:22:24;96610;;;-0.7;77
68891;BME280;55932;48.702;8.884;2023-01-28T00:24:41;96610;;;-0.7;77
68891;BME280;55932;48.702;8.884;2023-01-28T00:27:12;96610;;;-0.7;77
68891;BME280;55932;48.702;8.884;2023-01-28T00:32:07;96620;;;-0.7;76.5
68891;BME280;55932;48.702;8.884;2023-01-28T00:34:37;96610;;;-0.7;76.5
68891;BME280;55932;48.702;8.884;2023-01-28T00:37:12;96610;;;-0.7;77
68891;BME280;55932;48.702;8.884;2023-01-28T00:47:11;96610;;;-0.7;77
68891;BME280;55932;48.702;8.884;2023-01-28T00:49:41;96600;;;-0.7;77
68891;BME280;55932;48.702;8.884;2023-01-28T00:54:48;96610;;;-0.7;77
68891;BME280;55932;48.702;8.884;2023-01-28T00:57:19;96610;;;-0.6;77
68891;BME280;55932;48.702;8.884;2023-01-28T00:59:51;96610;;;-0.6;77
68891;BME280;55932;48.702;8.884;2023-01-28T01:02:14;96610;;;-0.7;77
68891;BME280;55932;48.702;8.884;2023-01-28T01:07:16;96600;;;-0.7;77
68891;BME280;55932;48.702;8.884;2023-01-28T01:09:47;96600;;;-0.6;77
68891;BME280;55932;48.702;8.884;2023-01-28T01:12:17;96600;;;-0.6;77
68891;BME280;55932;48.702;8.884;2023-01-28T01:14:48;96600;;;-0.6;77
68891;BME280;55932;48.702;8.884;2023-01-28T01:17:19;96610;;;-0.6;77
68891;BME280;55932;48.702;8.884;2023-01-28T01:19:50;96610;;;-0.6;77
68891;BME280;55932;48.702;8.884;2023-01-28T01:22:27;96610;;;-0.7;77
68891;BME280;55932;48.702;8.884;2023-01-28T01:24:58;96610;;;-0.7;77
68891;BME280;55932;48.702;8.884;2023-01-28T01:27:30;96610;;;-0.7;77
68891;BME280;55932;48.702;8.884;2023-01-28T01:40:10;96610;;;-0.6;77
68891;BME280;55932;48.702;8.884;2023-01-28T01:42:40;96620;;;-0.6;77
68891;BME280;55932;48.702;8.884;2023-01-28T01:45:11;96620;;;-0.6;77
68891;BME280;55932;48.702;8.884;2023-01-28T01:50:06;96620;;;-0.6;77
68891;BME280;55932;48.702;8.884;2023-01-28T01:52:35;96630;;;-0.6;77
68891;BME280;55932;48.702;8.884;2023-01-28T01:55:08;96620;;;-0.6;77
68891;BME280;55932;48.702;8.884;2023-01-28T01:57:43;96620;;;-0.6;77
68891;BME280;55932;48.702;8.884;2023-01-28T02:02:40;96630;;;-0.6;77
68891;BME280;55932;48.702;8.884;2023-01-28T02:07:47;96620;;;-0.6;77
68891;BME280;55932;48.702;8.884;2023-01-28T02:10:17;96620;;;-0.6;77
68891;BME280;55932;48.702;8.884;2023-01-28T02:12:49;96620;;;-0.6;77
68891;BME280;55932;48.702;8.884;2023-01-28T02:15:19;96620;;;-0.6;77
68891;BME280;55932;48.702;8.884;2023-01-28T02:17:47;96610;;;-0.6;77
68891;BME280;55932;48.702;8.884;2023-01-28T02:20:12;96620;;;-0.6;76.5
68891;BME280;55932;48.702;8.884;2023-01-28T02:22:54;96620;;;-0.6;77
68891;BME280;55932;48.702;8.884;2023-01-28T02:25:26;96630;;;-0.6;77
68891;BME280;55932;48.702;8.884;2023-01-28T02:30:18;96620;;;-0.6;76.5
68891;BME280;55932;48.702;8.884;2023-01-28T02:32:51;96620;;;-0.6;76.5
68891;BME280;55932;48.702;8.884;2023-01-28T02:35:23;96630;;;-0.6;76.5
68891;BME280;55932;48.702;8.884;2023-01-28T02:38:22;96630;;;-0.6;77
68891;BME280;55932;48.702;8.884;2023-01-28T02:40:28;96630;;;-0.6;77
68891;BME280;55932;48.702;8.884;2023-01-28T02:45:23;96620;;;-0.6;77
68891;BME280;55932;48.702;8.884;2023-01-28T02:47:53;96630;;;-0.6;77
68891;BME280;55932;48.702;8.884;2023-01-28T02:50:27;96630;;;-0.6;77
68891;BME280;55932;48.702;8.884;2023-01-28T02:52:56;96630;;;-0.5;77
68891;BME280;55932;48.702;8.884;2023-01-28T02:55:29;96630;;;-0.5;77
68891;BME280;55932;48.702;8.884;2023-01-28T02:57:59;96630;;;-0.6;77
68891;BME280;55932;48.702;8.884;2023-01-28T03:02:57;96640;;;-0.6;77
68891;BME280;55932;48.702;8.884;2023-01-28T03:10:25;96650;;;-0.6;77
68891;BME280;55932;48.702;8.884;2023-01-28T03:15:28;96650;;;-0.6;77
68891;BME280;55932;48.702;8.884;2023-01-28T03:18:00;96640;;;-0.6;77
68891;BME280;55932;48.702;8.884;2023-01-28T03:20:28;96650;;;-0.6;76.5
68891;BME280;55932;48.702;8.884;2023-01-28T03:23:00;96640;;;-0.6;76.5
68891;BME280;55932;48.702;8.884;2023-01-28T03:25:29;96650;;;-0.6;76.5
68891;BME280;55932;48.702;8.884;2023-01-28T03:30:38;96650;;;-0.7;77
68891;BME280;55932;48.702;8.884;2023-01-28T03:33:07;96650;;;-0.7;77
68891;BME280;55932;48.702;8.884;2023-01-28T03:35:38;96650;;;-0.7;77
68891;BME280;55932;48.702;8.884;2023-01-28T03:38:16;96650;;;-0.6;76.5
68891;BME280;55932;48.702;8.884;2023-01-28T03:40:51;96650;;;-0.7;76
68891;BME280;55932;48.702;8.884;2023-01-28T03:45:42;96650;;;-0.7;76
68891;BME280;55932;48.702;8.884;2023-01-28T03:50:51;96650;;;-0.7;76
68891;BME280;55932;48.702;8.884;2023-01-28T03:53:21;96650;;;-0.7;76.5
68891;BME280;55932;48.702;8.884;2023-01-28T03:58:14;96660;;;-0.7;76
68891;BME280;55932;48.702;8.884;2023-01-28T04:00:46;96660;;;-0.7;76
68891;BME280;55932;48.702;8.884;2023-01-28T04:03:17;96660;;;-0.7;76.5
68891;BME280;55932;48.702;8.884;2023-01-28T04:05:58;96660;;;-0.7;76.5
68891;BME280;55932;48.702;8.884;2023-01-28T04:08:25;96660;;;-0.7;76.5
68891;BME280;55932;48.702;8.884;2023-01-28T04:15:58;96650;;;-0.6;76.5
68891;BME280;55932;48.702;8.884;2023-01-28T04:18:29;96660;;;-0.6;76
68891;BME280;55932;48.702;8.884;2023-01-28T04:23:22;96660;;;-0.6;76.5
68891;BME280;55932;48.702;8.884;2023-01-28T04:25:53;96660;;;-0.6;76
68891;BME280;55932;48.702;8.884;2023-01-28T04:28:23;96670;;;-0.6;76.5
68891;BME280;55932;48.702;8.884;2023-01-28T04:30:55;96670;;;-0.6;76
68891;BME280;55932;48.702;8.884;2023-01-28T04:33:25;96680;;;-0.6;76
68891;BME280;55932;48.702;8.884;2023-01-28T04:36:03;96680;;;-0.6;76
68891;BME280;55932;48.702;8.884;2023-01-28T04:43:49;96680;;;-0.6;76
68891;BME280;55932;48.702;8.884;2023-01-28T04:46:06;96680;;;-0.5;76
68891;BME280;55932;48.702;8.884;2023-01-28T04:51:01;96690;;;-0.5;76
68891;BME280;55932;48.702;8.884;2023-01-28T04:53:38;96690;;;-0.5;76
68891;BME280;55932;48.702;8.884;2023-01-28T05:03:41;96690;;;-0.5;76
68891;BME280;55932;48.702;8.884;2023-01-28T05:06:11;96690;;;-0.5;76
68891;BME280;55932;48.702;8.884;2023-01-28T05:08:35;96690;;;-0.5;76
68891;BME280;55932;48.702;8.884;2023-01-28T05:11:06;96690;;;-0.6;76
68891;BME280;55932;48.702;8.884;2023-01-28T05:13:43;96690;;;-0.5;76
68891;BME280;55932;48.702;8.884;2023-01-28T05:18:39;96700;;;-0.5;76
68891;BME280;55932;48.702;8.884;2023-01-28T05:21:10;96700;;;-0.5;76.5
68891;BME280;55932;48.702;8.884;2023-01-28T05:23:41;96700;;;-0.5;76.5
68891;BME280;55932;48.702;8.884;2023-01-28T05:26:12;96700;;;-0.6;77
68891;BME280;55932;48.702;8.884;2023-01-28T05:28:43;96700;;;-0.6;77
68891;BME280;55932;48.702;8.884;2023-01-28T05:31:14;96700;;;-0.6;77
68891;BME280;55932;48.702;8.884;2023-01-28T05:33:45;96700;;;-0.5;76.5
68891;BME280;55932;48.702;8.884;2023-01-28T05:36:16;96700;;;-0.5;76.5
68891;BME280;55932;48.702;8.884;2023-01-28T05:38:47;96690;;;-0.5;76.5
68891;BME280;55932;48.702;8.884;2023-01-28T05:41:18;96700;;;-0.4;76
68891;BME280;55932;48.702;8.884;2023-01-28T05:46:32;96700;;;-0.5;76
68891;BME280;55932;48.702;8.884;2023-01-28T05:49:03;96710;;;-0.5;76
68891;BME280;55932;48.702;8.884;2023-01-28T05:51:26;96710;;;-0.5;76
68891;BME280;55932;48.702;8.884;2023-01-28T05:53:57;96710;;;-0.5;76.5
68891;BME280;55932;48.702;8.884;2023-01-28T05:58:58;96710;;;-0.5;76
68891;BME280;55932;48.702;8.884;2023-01-28T06:01:28;96710;;;-0.5;76
68891;BME280;55932;48.702;8.884;2023-01-28T06:03:53;96720;;;-0.5;76
68891;BME280;55932;48.702;8.884;2023-01-28T06:06:23;96710;;;-0.5;76
68891;BME280;55932;48.702;8.884;2023-01-28T06:09:00;96720;;;-0.5;76.5
68891;BME280;55932;48.702;8.884;2023-01-28T06:11:31;96710;;;-0.6;76.5
68891;BME280;55932;48.702;8.884;2023-01-28T06:19:04;96730;;;-0.5;76.5
68891;BME280;55932;48.702;8.884;2023-01-28T06:21:34;96730;;;-0.5;76
68891;BME280;55932;48.702;8.884;2023-01-28T06:26:34;96750;;;-0.5;76
68891;BME280;55932;48.702;8.884;2023-01-28T06:28:58;96740;;;-0.5;76.5
68891;BME280;55932;48.702;8.884;2023-01-28T06:31:30;96750;;;-0.5;76.5
68891;BME280;55932;48.702;8.884;2023-01-28T06:36:24;96760;;;-0.4;76
68891;BME280;55932;48.702;8.884;2023-01-28T06:38:55;96760;;;-0.4;76
68891;BME280;55932;48.702;8.884;2023-01-28T06:41:26;96750;;;-0.5;76
68891;BME280;55932;48.702;8.884;2023-01-28T06:43:56;96760;;;-0.4;76
68891;BME280;55932;48.702;8.884;2023-01-28T06:46:27;96750;;;-0.4;76
68891;BME280;55932;48.702;8.884;2023-01-28T06:48:58;96760;;;-0.5;76
68891;BME280;55932;48.702;8.884;2023-01-28T06:51:28;96770;;;-0.4;76
68891;BME280;55932;48.702;8.884;2023-01-28T06:54:19;96770;;;-0.4;76
68891;BME280;55932;48.702;8.884;2023-01-28T06:56:43;96770;;;-0.5;76
68891;BME280;55932;48.702;8.884;2023-01-28T06:59:13;96780;;;-0.5;76.5
68891;BME280;55932;48.702;8.884;2023-01-28T07:01:50;96780;;;-0.4;76
68891;BME280;55932;48.702;8.884;2023-01-28T07:04:08;96770;;;-0.4;76.5
68891;BME280;55932;48.702;8.884;2023-01-28T07:06:38;96770;;;-0.4;76.5
68891;BME280;55932;48.702;8.884;2023-01-28T07:09:09;96780;;;-0.3;76.5
68891;BME280;55932;48.702;8.884;2023-01-28T07:11:40;96780;;;-0.3;76
68891;BME280;55932;48.702;8.884;2023-01-28T07:14:11;96780;;;-0.3;76
68891;BME280;55932;48.702;8.884;2023-01-28T07:16:42;96780;;;-0.3;76
68891;BME280;55932;48.702;8.884;2023-01-28T07:19:13;96780;;;-0.3;76
68891;BME280;55932;48.702;8.884;2023-01-28T07:21:44;96780;;;-0.3;76
68891;BME280;55932;48.702;8.884;2023-01-28T07:29:09;96790;;;-0.3;76
68891;BME280;55932;48.702;8.884;2023-01-28T07:31:40;96790;;;-0.3;76
68891;BME280;55932;48.702;8.884;2023-01-28T07:34:11;96790;;;-0.3;76
68891;BME280;55932;48.702;8.884;2023-01-28T07:36:42;96790;;;-0.2;76
68891;BME280;55932;48.702;8.884;2023-01-28T07:41:49;96790;;;-0.2;76
68891;BME280;55932;48.702;8.884;2023-01-28T07:44:20;96790;;;-0.2;76
68891;BME280;55932;48.702;8.884;2023-01-28T07:46:51;96800;;;-0.1;76
68891;BME280;55932;48.702;8.884;2023-01-28T07:49:22;96790;;;-0.1;76
68891;BME280;55932;48.702;8.884;2023-01-28T07:52:00;96800;;;-0.1;76
68891;BME280;55932;48.702;8.884;2023-01-28T07:54:17;96800;;;-0.1;76
68891;BME280;55932;48.702;8.884;2023-01-28T07:56:48;96810;;;0;76
68891;BME280;55932;48.702;8.884;2023-01-28T07:59:19;96810;;;0;76
68891;BME280;55932;48.702;8.884;2023-01-28T08:01:50;96820;;;0;76
68891;BME280;55932;48.702;8.884;2023-01-28T08:04:20;96820;;;0;76
68891;BME280;55932;48.702;8.884;2023-01-28T08:17:00;96820;;;0.1;75.5
68891;BME280;55932;48.702;8.884;2023-01-28T08:19:32;96830;;;0.1;75.5
68891;BME280;55932;48.702;8.884;2023-01-28T08:24:39;96830;;;0.2;75.5
68891;BME280;55932;48.702;8.884;2023-01-28T08:27:09;96830;;;0.2;75.5
68891;BME280;55932;48.702;8.884;2023-01-28T08:29:34;96830;;;0.3;76
68891;BME280;55932;48.702;8.884;2023-01-28T08:32:04;96830;;;0.3;75.5
68891;BME280;55932;48.702;8.884;2023-01-28T08:34:35;96830;;;0.3;75.5
68891;BME280;55932;48.702;8.884;2023-01-28T08:37:13;96830;;;0.3;75.5
68891;BME280;55932;48.702;8.884;2023-01-28T08:42:21;96840;;;0.3;75.5
68891;BME280;55932;48.702;8.884;2023-01-28T08:44:45;96840;;;0.4;75.5
68891;BME280;55932;48.702;8.884;2023-01-28T08:49:38;96840;;;0.4;75.5
68891;BME280;55932;48.702;8.884;2023-01-28T08:52:09;96840;;;0.4;75.5
68891;BME280;55932;48.702;8.884;2023-01-28T08:57:04;96840;;;0.5;75.5
68891;BME280;55932;48.702;8.884;2023-01-28T09:09:37;96840;;;0.7;75.5
68891;BME280;55932;48.702;8.884;2023-01-28T09:12:07;96830;;;0.7;75.5
68891;BME280;55932;48.702;8.884;2023-01-28T09:17:15;96840;;;0.9;75.5
68891;BME280;55932;48.702;8.884;2023-01-28T09:19:46;96840;;;0.9;75.5
68891;BME280;55932;48.702;8.884;2023-01-28T09:24:41;96850;;;0.8;75.5
68891;BME280;55932;48.702;8.884;2023-01-28T09:34:45;96860;;;0.9;75.5
68891;BME280;55932;48.702;8.884;2023-01-28T09:37:15;96870;;;0.9;75.5
68891;BME280;55932;48.702;8.884;2023-01-28T09:39:46;96870;;;0.9;75.5
68891;BME280;55932;48.702;8.884;2023-01-28T09:42:21;96870;;;0.9;75.5
68891;BME280;55932;48.702;8.884;2023-01-28T09:44:54;96870;;;0.9;75
68891;BME280;55932;48.702;8.884;2023-01-28T09:52:20;96880;;;1.3;75
68891;BME280;55932;48.702;8.884;2023-01-28T09:55:14;96870;;;1.4;75.5
68891;BME280;55932;48.702;8.884;2023-01-28T09:57:51;96880;;;1.4;75.5
68891;BME280;55932;48.702;8.884;2023-01-28T10:05:11;96870;;;1.5;75
68891;BME280;55932;48.702;8.884;2023-01-28T10:10:11;96880;;;1.4;75.5
68891;BME280;55932;48.702;8.884;2023-01-28T10:12:38;96870;;;1.5;75.5
68891;BME280;55932;48.702;8.884;2023-01-28T10:17:39;96870;;;1.4;75.5
68891;BME280;55932;48.702;8.884;2023-01-28T10:20:07;96870;;;1.3;75.5
68891;BME280;55932;48.702;8.884;2023-01-28T10:22:37;96850;;;1.3;75.5
68891;BME280;55932;48.702;8.884;2023-01-28T10:25:20;96860;;;1.6;75.5
68891;BME280;55932;48.702;8.884;2023-01-28T10:27:36;96860;;;1.5;75.5
68891;BME280;55932;48.702;8.884;2023-01-28T10:32:33;96860;;;1.3;75.5
68891;BME280;55932;48.702;8.884;2023-01-28T10:35:01;96860;;;1.1;76
68891;BME280;55932;48.702;8.884;2023-01-28T10:37:32;96870;;;1;76
68891;BME280;55932;48.702;8.884;2023-01-28T10:42:31;96860;;;1;76
68891;BME280;55932;48.702;8.884;2023-01-28T10:45:14;96860;;;0.9;76
68891;BME280;55932;48.702;8.884;2023-01-28T10:47:29;96870;;;0.9;76
68891;BME280;55932;48.702;8.884;2023-01-28T10:55:01;96860;;;1.2;75
68891;BME280;55932;48.702;8.884;2023-01-28T10:57:32;96870;;;1.2;75
68891;BME280;55932;48.702;8.884;2023-01-28T11:00:11;96860;;;1.4;75
68891;BME280;55932;48.702;8.884;2023-01-28T11:05:26;96860;;;1.5;75
68891;BME280;55932;48.702;8.884;2023-01-28T11:07:40;96860;;;1.6;75
68891;BME280;55932;48.702;8.884;2023-01-28T11:12:35;96860;;;1.6;75
68891;BME280;55932;48.702;8.884;2023-01-28T11:25:26;96860;;;1.8;75.5
68891;BME280;55932;48.702;8.884;2023-01-28T11:27:40;96850;;;1.8;75.5
68891;BME280;55932;48.702;8.884;2023-01-28T11:30:27;96860;;;1.7;75.5
68891;BME280;55932;48.702;8.884;2023-01-28T11:35:27;96860;;;1.8;75.5
68891;BME280;55932;48.702;8.884;2023-01-28T11:37:56;96860;;;1.7;75.5
68891;BME280;55932;48.702;8.884;2023-01-28T11:40:19;96860;;;1.8;75.5
68891;BME280;55932;48.702;8.884;2023-01-28T11:42:50;96860;;;1.7;75.5
68891;BME280;55932;48.702;8.884;2023-01-28T11:45:23;96860;;;1.6;75.5
68891;BME280;55932;48.702;8.884;2023-01-28T11:48:01;96860;;;1.5;76
68891;BME280;55932;48.702;8.884;2023-01-28T12:01:04;96860;;;1.2;76
68891;BME280;55932;48.702;8.884;2023-01-28T12:03:38;96860;;;1.2;76
68891;BME280;55932;48.702;8.884;2023-01-28T12:08:40;96860;;;1.3;75.5
68891;BME280;55932;48.702;8.884;2023-01-28T12:10:40;96850;;;1.3;75.5
68891;BME280;55932;48.702;8.884;2023-01-28T12:13:11;96860;;;1.2;75.5
68891;BME280;55932;48.702;8.884;2023-01-28T12:15:41;96860;;;1.2;75.5
68891;BME280;55932;48.702;8.884;2023-01-28T12:20:27;96860;;;1.2;75.5
68891;BME280;55932;48.702;8.884;2023-01-28T12:23:02;96860;;;1.3;75.5
68891;BME280;55932;48.702;8.884;2023-01-28T12:25:37;96860;;;1.3;75.5
68891;BME280;55932;48.702;8.884;2023-01-28T12:30:33;96860;;;1.3;75.5
68891;BME280;55932;48.702;8.884;2023-01-28T12:33:04;96870;;;1.3;75.5
68891;BME280;55932;48.702;8.884;2023-01-28T12:35:30;96860;;;1.3;75
68891;BME280;55932;48.702;8.884;2023-01-28T12:43:02;96870;;;1.2;75.5
68891;BME280;55932;48.702;8.884;2023-01-28T12:45:37;96860;;;1.2;75.5
68891;BME280;55932;48.702;8.884;2023-01-28T12:48:02;96860;;;1.1;75.5
68891;BME280;55932;48.702;8.884;2023-01-28T12:50:46;96870;;;1.2;75.5
68891;BME280;55932;48.702;8.884;2023-01-28T12:53:17;96860;;;1.2;75.5
68891;BME280;55932;48.702;8.884;2023-01-28T12:55:44;96850;;;1.1;75.5
68891;BME280;55932;48.702;8.884;2023-01-28T12:58:02;96850;;;1.1;75.5
68891;BME280;55932;48.702;8.884;2023-01-28T13:00:33;96860;;;1.1;75.5
68891;BME280;55932;48.702;8.884;2023-01-28T13:06:12;96850;;;0.9;75.5
68891;BME280;55932;48.702;8.884;2023-01-28T13:08:26;96850;;;0.9;75.5
68891;BME280;55932;48.702;8.884;2023-01-28T13:10:58;96850;;;0.9;75.5
68891;BME280;55932;48.702;8.884;2023-01-28T13:15:46;96850;;;0.9;75.5
68891;BME280;55932;48.702;8.884;2023-01-28T13:18:47;96840;;;0.9;75.5
68891;BME280;55932;48.702;8.884;2023-01-28T13:20:47;96850;;;0.8;75.5
68891;BME280;55932;48.702;8.884;2023-01-28T13:23:48;96860;;;0.8;76
68891;BME280;55932;48.702;8.884;2023-01-28T13:25:47;96860;;;0.9;75.5
68891;BME280;55932;48.702;8.884;2023-01-28T13:28:25;96860;;;0.9;75.5
68891;BME280;55932;48.702;8.884;2023-01-28T13:30:47;96850;;;1;75.5
68891;BME280;55932;48.702;8.884;2023-01-28T13:33:44;96860;;;0.9;76
68891;BME280;55932;48.702;8.884;2023-01-28T13:38:12;96860;;;0.9;75.5
68891;BME280;55932;48.702;8.884;2023-01-28T13:40:37;96860;;;0.8;75.5
68891;BME280;55932;48.702;8.884;2023-01-28T13:43:25;96870;;;0.8;76
68891;BME280;55932;48.702;8.884;2023-01-28T13:45:38;96870;;;0.8;76
68891;BME280;55932;48.702;8.884;2023-01-28T13:48:17;96870;;;0.8;75.5
68891;BME280;55932;48.702;8.884;2023-01-28T13:50:40;96870;;;0.7;75.5
68891;BME280;55932;48.702;8.884;2023-01-28T14:01:11;96880;;;0.6;75.5
68891;BME280;55932;48.702;8.884;2023-01-28T14:08:35;96880;;;0.6;75.5
68891;BME280;55932;48.702;8.884;2023-01-28T14:13:27;96890;;;0.6;75.5
68891;BME280;55932;48.702;8.884;2023-01-28T14:17:09;96900;;;0.6;75.5
68891;BME280;55932;48.702;8.884;2023-01-28T14:18:36;96890;;;0.6;75.5
68891;BME280;55932;48.702;8.884;2023-01-28T14:23:58;96900;;;0.7;75.5
68891;BME280;55932;48.702;8.884;2023-01-28T14:33:37;96910;;;0.7;75.5
68891;BME280;55932;48.702;8.884;2023-01-28T14:36:10;96910;;;0.6;75.5
68891;BME280;55932;48.702;8.884;2023-01-28T14:38:40;96920;;;0.5;75.5
68891;BME280;55932;48.702;8.884;2023-01-28T14:40:58;96910;;;0.5;75.5
68891;BME280;55932;48.702;8.884;2023-01-28T14:43:37;96910;;;0.5;75.5
68891;BME280;55932;48.702;8.884;2023-01-28T14:46:08;96920;;;0.5;76
68891;BME280;55932;48.702;8.884;2023-01-28T14:53:45;96930;;;0.5;75.5
68891;BME280;55932;48.702;8.884;2023-01-28T14:57:18;96940;;;0.5;75.5
68891;BME280;55932;48.702;8.884;2023-01-28T14:58:52;96940;;;0.5;75.5
68891;BME280;55932;48.702;8.884;2023-01-28T15:01:26;96940;;;0.5;75.5
68891;BME280;55932;48.702;8.884;2023-01-28T15:06:03;96940;;;0.6;75.5
68891;BME280;55932;48.702;8.884;2023-01-28T15:11:02;96940;;;0.7;75.5
68891;BME280;55932;48.702;8.884;2023-01-28T15:13:33;96930;;;0.7;75.5
68891;BME280;55932;48.702;8.884;2023-01-28T15:16:02;96940;;;0.7;75.5
68891;BME280;55932;48.702;8.884;2023-01-28T15:25:52;96960;;;0.7;75.5
68891;BME280;55932;48.702;8.884;2023-01-28T15:33:23;96960;;;0.6;75.5
68891;BME280;55932;48.702;8.884;2023-01-28T15:35:55;96970;;;0.6;75.5
68891;BME280;55932;48.702;8.884;2023-01-28T15:38:26;96970;;;0.6;75.5
68891;BME280;55932;48.702;8.884;2023-01-28T15:40:57;96970;;;0.6;76
68891;BME280;55932;48.702;8.884;2023-01-28T15:43:26;96970;;;0.5;76
68891;BME280;55932;48.702;8.884;2023-01-28T15:50:57;96980;;;0.6;76
68891;BME280;55932;48.702;8.884;2023-01-28T15:53:29;96980;;;0.6;75.5
68891;BME280;55932;48.702;8.884;2023-01-28T16:01:21;96980;;;0.5;75.5
68891;BME280;55932;48.702;8.884;2023-01-28T16:04:00;96980;;;0.5;76
68891;BME280;55932;48.702;8.884;2023-01-28T16:06:22;96990;;;0.5;76
68891;BME280;55932;48.702;8.884;2023-01-28T16:08:54;96990;;;0.5;76
68891;BME280;55932;48.702;8.884;2023-01-28T16:11:25;96990;;;0.4;76
68891;BME280;55932;48.702;8.884;2023-01-28T16:13:42;96990;;;0.5;76
68891;BME280;55932;48.702;8.884;2023-01-28T16:16:26;97000;;;0.5;76
68891;BME280;55932;48.702;8.884;2023-01-28T16:18:55;96990;;;0.5;76
68891;BME280;55932;48.702;8.884;2023-01-28T16:26:20;97000;;;0.4;76
68891;BME280;55932;48.702;8.884;2023-01-28T16:28:45;97000;;;0.5;76
68891;BME280;55932;48.702;8.884;2023-01-28T16:31:20;97000;;;0.5;76
68891;BME280;55932;48.702;8.884;2023-01-28T16:33:34;97000;;;0.5;76
68891;BME280;55932;48.702;8.884;2023-01-28T16:41:14;97000;;;0.2;76.5
68891;BME280;55932;48.702;8.884;2023-01-28T16:43:36;97010;;;0.2;77
68891;BME280;55932;48.702;8.884;2023-01-28T16:46:08;97010;;;0.2;77
68891;BME280;55932;48.702;8.884;2023-01-28T16:51:20;97010;;;0.2;77
68891;BME280;55932;48.702;8.884;2023-01-28T16:56:20;97010;;;0.2;77
68891;BME280;55932;48.702;8.884;2023-01-28T16:58:49;97000;;;0.2;77
68891;BME280;55932;48.702;8.884;2023-01-28T17:01:20;97000;;;0.2;77
68891;BME280;55932;48.702;8.884;2023-01-28T17:06:09;97010;;;0.1;77
68891;BME280;55932;48.702;8.884;2023-01-28T17:11:41;97010;;;0.1;77
68891;BME280;55932;48.702;8.884;2023-01-28T17:14:12;97010;;;0.1;77
68891;BME280;55932;48.702;8.884;2023-01-28T17:18:53;97010;;;0;77
68891;BME280;55932;48.702;8.884;2023-01-28T17:21:23;97010;;;0;77
68891;BME280;55932;48.702;8.884;2023-01-28T17:23:53;97010;;;0;77
68891;BME280;55932;48.702;8.884;2023-01-28T17:26:33;97020;;;0;77
68891;BME280;55932;48.702;8.884;2023-01-28T17:28:53;97020;;;0;77
68891;BME280;55932;48.702;8.884;2023-01-28T17:31:12;97010;;;0;77
68891;BME280;55932;48.702;8.884;2023-01-28T17:33:43;97020;;;0;77
68891;BME280;55932;48.702;8.884;2023-01-28T17:36:13;97020;;;0;77
68891;BME280;55932;48.702;8.884;2023-01-28T17:38:44;97030;;;0;77
68891;BME280;55932;48.702;8.884;2023-01-28T17:41:14;97030;;;0;77
68891;BME280;55932;48.702;8.884;2023-01-28T17:43:52;97040;;;0;77
68891;BME280;55932;48.702;8.884;2023-01-28T17:48:46;97040;;;0;77
68891;BME280;55932;48.702;8.884;2023-01-28T17:59:08;97030;;;-0.1;77
68891;BME280;55932;48.702;8.884;2023-01-28T18:01:29;97040;;;-0.1;77.5
68891;BME280;55932;48.702;8.884;2023-01-28T18:03:59;97030;;;-0.1;77.5
68891;BME280;55932;48.702;8.884;2023-01-28T18:08:49;97050;;;0;77.5
68891;BME280;55932;48.702;8.884;2023-01-28T18:11:19;97040;;;0;77.5
68891;BME280;55932;48.702;8.884;2023-01-28T18:13:49;97040;;;0;77
68891;BME280;55932;48.702;8.884;2023-01-28T18:21:29;97040;;;-0.1;77
68891;BME280;55932;48.702;8.884;2023-01-28T18:23:52;97040;;;-0.2;77
68891;BME280;55932;48.702;8.884;2023-01-28T18:26:22;97040;;;-0.3;77.5
68891;BME280;55932;48.702;8.884;2023-01-28T18:28:53;97040;;;-0.3;77.5
68891;BME280;55932;48.702;8.884;2023-01-28T18:31:23;97040;;;-0.3;77.5
68891;BME280;55932;48.702;8.884;2023-01-28T18:33:54;97040;;;-0.3;77.5
68891;BME280;55932;48.702;8.884;2023-01-28T18:36:36;97050;;;-0.2;77.5
68891;BME280;55932;48.702;8.884;2023-01-28T18:39:07;97050;;;-0.1;77.5
68891;BME280;55932;48.702;8.884;2023-01-28T18:41:36;97050;;;-0.1;77.5
68891;BME280;55932;48.702;8.884;2023-01-28T18:46:25;97050;;;0;77
68891;BME280;55932;48.702;8.884;2023-01-28T18:48:55;97060;;;0;77
68891;BME280;55932;48.702;8.884;2023-01-28T18:51:26;97060;;;0;77
68891;BME280;55932;48.702;8.884;2023-01-28T18:53:57;97060;;;0;77
68891;BME280;55932;48.702;8.884;2023-01-28T19:01:29;97070;;;0;77
68891;BME280;55932;48.702;8.884;2023-01-28T19:03:59;97070;;;0;77
68891;BME280;55932;48.702;8.884;2023-01-28T19:06:29;97070;;;0;77
68891;BME280;55932;48.702;8.884;2023-01-28T19:11:41;97060;;;0;77
68891;BME280;55932;48.702;8.884;2023-01-28T19:14:12;97070;;;0;77
68891;BME280;55932;48.702;8.884;2023-01-28T19:16:41;97070;;;0;77
68891;BME280;55932;48.702;8.884;2023-01-28T19:19:11;97070;;;0;77
68891;BME280;55932;48.702;8.884;2023-01-28T19:26:51;97060;;;0;77
68891;BME280;55932;48.702;8.884;2023-01-28T19:36:55;97080;;;0;77
68891;BME280;55932;48.702;8.884;2023-01-28T19:39:25;97080;;;0;77
68891;BME280;55932;48.702;8.884;2023-01-28T19:44:15;97080;;;0;77
68891;BME280;55932;48.702;8.884;2023-01-28T19:46:46;97080;;;0;77
68891;BME280;55932;48.702;8.884;2023-01-28T19:49:15;97070;;;0;77
68891;BME280;55932;48.702;8.884;2023-01-28T19:54:04;97090;;;0;77
68891;BME280;55932;48.702;8.884;2023-01-28T19:56:35;97080;;;0;77
68891;BME280;55932;48.702;8.884;2023-01-28T20:01:36;97080;;;-0.1;77
68891;BME280;55932;48.702;8.884;2023-01-28T20:04:07;97080;;;0;77
68891;BME280;55932;48.702;8.884;2023-01-28T20:06:36;97090;;;-0.1;77
68891;BME280;55932;48.702;8.884;2023-01-28T20:09:11;97080;;;0;77
68891;BME280;55932;48.702;8.884;2023-01-28T20:16:39;97090;;;-0.1;77
68891;BME280;55932;48.702;8.884;2023-01-28T20:19:13;97100;;;-0.1;77
68891;BME280;55932;48.702;8.884;2023-01-28T20:24:21;97090;;;-0.1;77.5
68891;BME280;55932;48.702;8.884;2023-01-28T20:26:51;97090;;;0;77
68891;BME280;55932;48.702;8.884;2023-01-28T20:29:21;97090;;;0;77
68891;BME280;55932;48.702;8.884;2023-01-28T20:34:13;97100;;;-0.1;77
68891;BME280;55932;48.702;8.884;2023-01-28T20:51:43;97140;;;-0.2;77
68891;BME280;55932;48.702;8.884;2023-01-28T20:54:14;97140;;;-0.2;77
68891;BME280;55932;48.702;8.884;2023-01-28T20:56:45;97150;;;-0.2;77
68891;BME280;55932;48.702;8.884;2023-01-28T20:59:15;97150;;;-0.2;77